sensor_id;sensor_type;location;lat;lon;timestamp;temperature;humidity
52725;DHT22;38621;52.830;6.914;2023-05-07T00:01:46;13.50;99.90
52725;DHT22;38621;52.830;6.914;2023-05-07T00:04:11;13.40;99.90
52725;DHT22;38621;52.830;6.914;2023-05-07T00:06:38;13.40;99.90
52725;DHT22;38621;52.830;6.914;2023-05-07T00:09:06;13.40;99.90
52725;DHT22;38621;52.830;6.914;2023-05-07T00:11:32;13.30;99.90
52725;DHT22;38621;52.830;6.914;2023-05-07T00:13:58;13.30;99.90
52725;DHT22;38621;52.830;6.914;2023-05-07T00:16:24;13.20;99.90
52725;DHT22;38621;52.830;6.914;2023-05-07T00:18:50;13.20;99.90
52725;DHT22;38621;52.830;6.914;2023-05-07T00:21:16;13.10;99.90
52725;DHT22;38621;52.830;6.914;2023-05-07T00:23:41;13.10;99.90
52725;DHT22;38621;52.830;6.914;2023-05-07T00:26:07;13.00;99.90
52725;DHT22;38621;52.830;6.914;2023-05-07T00:28:33;13.00;99.90
52725;DHT22;38621;52.830;6.914;2023-05-07T00:30:58;13.00;99.90
52725;DHT22;38621;52.830;6.914;2023-05-07T00:33:24;12.90;99.90
52725;DHT22;38621;52.830;6.914;2023-05-07T00:35:52;12.90;99.90
52725;DHT22;38621;52.830;6.914;2023-05-07T00:38:18;12.90;99.90
52725;DHT22;38621;52.830;6.914;2023-05-07T00:40:43;12.90;99.90
52725;DHT22;38621;52.830;6.914;2023-05-07T00:43:09;12.80;99.90
52725;DHT22;38621;52.830;6.914;2023-05-07T00:45:35;12.80;99.90
52725;DHT22;38621;52.830;6.914;2023-05-07T00:48:01;12.80;99.90
52725;DHT22;38621;52.830;6.914;2023-05-07T00:50:28;12.70;99.90
52725;DHT22;38621;52.830;6.914;2023-05-07T00:52:55;12.70;99.90
52725;DHT22;38621;52.830;6.914;2023-05-07T00:55:23;12.70;99.90
52725;DHT22;38621;52.830;6.914;2023-05-07T00:57:49;12.60;99.90
52725;DHT22;38621;52.830;6.914;2023-05-07T01:00:15;12.60;99.90
52725;DHT22;38621;52.830;6.914;2023-05-07T01:02:42;12.60;99.90
52725;DHT22;38621;52.830;6.914;2023-05-07T01:05:11;12.60;99.90
52725;DHT22;38621;52.830;6.914;2023-05-07T01:07:40;12.60;99.90
52725;DHT22;38621;52.830;6.914;2023-05-07T01:10:07;12.50;99.90
52725;DHT22;38621;52.830;6.914;2023-05-07T01:12:34;12.50;99.90
52725;DHT22;38621;52.830;6.914;2023-05-07T01:15:01;12.50;99.90
52725;DHT22;38621;52.830;6.914;2023-05-07T01:17:27;12.40;99.90
52725;DHT22;38621;52.830;6.914;2023-05-07T01:19:53;12.40;99.90
52725;DHT22;38621;52.830;6.914;2023-05-07T01:22:32;12.30;99.90
52725;DHT22;38621;52.830;6.914;2023-05-07T01:24:59;12.30;99.90
52725;DHT22;38621;52.830;6.914;2023-05-07T01:27:25;12.30;99.90
52725;DHT22;38621;52.830;6.914;2023-05-07T01:29:51;12.30;99.90
52725;DHT22;38621;52.830;6.914;2023-05-07T01:32:19;12.20;99.90
52725;DHT22;38621;52.830;6.914;2023-05-07T01:34:48;12.20;99.90
52725;DHT22;38621;52.830;6.914;2023-05-07T01:37:16;12.10;99.90
52725;DHT22;38621;52.830;6.914;2023-05-07T01:39:42;12.10;99.90
52725;DHT22;38621;52.830;6.914;2023-05-07T01:42:08;12.10;99.90
52725;DHT22;38621;52.830;6.914;2023-05-07T01:44:34;12.10;99.90
52725;DHT22;38621;52.830;6.914;2023-05-07T01:47:01;12.10;99.90
52725;DHT22;38621;52.830;6.914;2023-05-07T01:49:28;12.10;99.90
52725;DHT22;38621;52.830;6.914;2023-05-07T01:51:53;12.10;99.90
52725;DHT22;38621;52.830;6.914;2023-05-07T01:54:25;12.00;99.90
52725;DHT22;38621;52.830;6.914;2023-05-07T01:56:53;12.00;99.90
52725;DHT22;38621;52.830;6.914;2023-05-07T01:59:18;12.00;99.90
52725;DHT22;38621;52.830;6.914;2023-05-07T02:01:44;12.00;99.90
52725;DHT22;38621;52.830;6.914;2023-05-07T02:04:10;11.90;99.90
52725;DHT22;38621;52.830;6.914;2023-05-07T02:06:35;11.90;99.90
52725;DHT22;38621;52.830;6.914;2023-05-07T02:09:01;11.90;99.90
52725;DHT22;38621;52.830;6.914;2023-05-07T02:11:27;11.80;99.90
52725;DHT22;38621;52.830;6.914;2023-05-07T02:13:53;11.80;99.90
52725;DHT22;38621;52.830;6.914;2023-05-07T02:16:18;11.70;99.90
52725;DHT22;38621;52.830;6.914;2023-05-07T02:18:45;11.70;99.90
52725;DHT22;38621;52.830;6.914;2023-05-07T02:21:11;11.70;99.90
52725;DHT22;38621;52.830;6.914;2023-05-07T02:23:36;11.70;99.90
52725;DHT22;38621;52.830;6.914;2023-05-07T02:26:04;11.70;99.90
52725;DHT22;38621;52.830;6.914;2023-05-07T02:28:30;11.60;99.90
52725;DHT22;38621;52.830;6.914;2023-05-07T02:30:55;11.60;99.90
52725;DHT22;38621;52.830;6.914;2023-05-07T02:33:23;11.60;99.90
52725;DHT22;38621;52.830;6.914;2023-05-07T02:35:50;11.60;99.90
52725;DHT22;38621;52.830;6.914;2023-05-07T02:38:17;11.60;99.90
52725;DHT22;38621;52.830;6.914;2023-05-07T02:40:43;11.60;99.90
52725;DHT22;38621;52.830;6.914;2023-05-07T02:43:09;11.60;99.90
52725;DHT22;38621;52.830;6.914;2023-05-07T02:45:35;11.60;99.90
52725;DHT22;38621;52.830;6.914;2023-05-07T02:48:03;11.50;99.90
52725;DHT22;38621;52.830;6.914;2023-05-07T02:50:29;11.50;99.90
52725;DHT22;38621;52.830;6.914;2023-05-07T02:52:55;11.60;99.90
52725;DHT22;38621;52.830;6.914;2023-05-07T02:55:21;11.50;99.90
52725;DHT22;38621;52.830;6.914;2023-05-07T02:57:46;11.50;99.90
52725;DHT22;38621;52.830;6.914;2023-05-07T03:00:17;11.50;99.90
52725;DHT22;38621;52.830;6.914;2023-05-07T03:02:44;11.50;99.90
52725;DHT22;38621;52.830;6.914;2023-05-07T03:05:10;11.50;99.90
52725;DHT22;38621;52.830;6.914;2023-05-07T03:07:36;11.50;99.90
52725;DHT22;38621;52.830;6.914;2023-05-07T03:10:03;11.40;99.90
52725;DHT22;38621;52.830;6.914;2023-05-07T03:12:29;11.40;99.90
52725;DHT22;38621;52.830;6.914;2023-05-07T03:14:55;11.50;99.90
52725;DHT22;38621;52.830;6.914;2023-05-07T03:17:22;11.50;99.90
52725;DHT22;38621;52.830;6.914;2023-05-07T03:19:47;11.40;99.90
52725;DHT22;38621;52.830;6.914;2023-05-07T03:22:13;11.40;99.90
52725;DHT22;38621;52.830;6.914;2023-05-07T03:24:39;11.40;99.90
52725;DHT22;38621;52.830;6.914;2023-05-07T03:27:05;11.40;99.90
52725;DHT22;38621;52.830;6.914;2023-05-07T03:29:30;11.30;99.90
52725;DHT22;38621;52.830;6.914;2023-05-07T03:31:56;11.40;99.90
52725;DHT22;38621;52.830;6.914;2023-05-07T03:34:22;11.40;99.90
52725;DHT22;38621;52.830;6.914;2023-05-07T03:36:51;11.30;99.90
52725;DHT22;38621;52.830;6.914;2023-05-07T03:39:16;11.30;99.90
52725;DHT22;38621;52.830;6.914;2023-05-07T03:41:42;11.40;99.90
52725;DHT22;38621;52.830;6.914;2023-05-07T03:44:08;11.30;99.90
52725;DHT22;38621;52.830;6.914;2023-05-07T03:46:34;11.30;99.90
52725;DHT22;38621;52.830;6.914;2023-05-07T03:49:00;11.30;99.90
52725;DHT22;38621;52.830;6.914;2023-05-07T03:51:26;11.30;99.90
52725;DHT22;38621;52.830;6.914;2023-05-07T03:53:52;11.30;99.90
52725;DHT22;38621;52.830;6.914;2023-05-07T03:56:19;11.30;99.90
52725;DHT22;38621;52.830;6.914;2023-05-07T03:58:45;11.30;99.90
52725;DHT22;38621;52.830;6.914;2023-05-07T04:01:11;11.30;99.90
52725;DHT22;38621;52.830;6.914;2023-05-07T04:03:37;11.30;99.90
52725;DHT22;38621;52.830;6.914;2023-05-07T04:06:03;11.20;99.90
52725;DHT22;38621;52.830;6.914;2023-05-07T04:08:28;11.20;99.90
52725;DHT22;38621;52.830;6.914;2023-05-07T04:10:55;11.20;99.90
52725;DHT22;38621;52.830;6.914;2023-05-07T04:13:21;11.20;99.90
52725;DHT22;38621;52.830;6.914;2023-05-07T04:15:47;11.20;99.90
52725;DHT22;38621;52.830;6.914;2023-05-07T04:18:14;11.20;99.90
52725;DHT22;38621;52.830;6.914;2023-05-07T04:20:40;11.20;99.90
52725;DHT22;38621;52.830;6.914;2023-05-07T04:23:06;11.20;99.90
52725;DHT22;38621;52.830;6.914;2023-05-07T04:25:32;11.20;99.90
52725;DHT22;38621;52.830;6.914;2023-05-07T04:27:58;11.20;99.90
52725;DHT22;38621;52.830;6.914;2023-05-07T04:30:24;11.20;99.90
52725;DHT22;38621;52.830;6.914;2023-05-07T04:32:50;11.20;99.90
52725;DHT22;38621;52.830;6.914;2023-05-07T04:35:16;11.20;99.90
52725;DHT22;38621;52.830;6.914;2023-05-07T04:37:42;11.10;99.90
52725;DHT22;38621;52.830;6.914;2023-05-07T04:40:08;11.20;99.90
52725;DHT22;38621;52.830;6.914;2023-05-07T04:42:34;11.20;99.90
52725;DHT22;38621;52.830;6.914;2023-05-07T04:45:01;11.10;99.90
52725;DHT22;38621;52.830;6.914;2023-05-07T04:47:27;11.20;99.90
52725;DHT22;38621;52.830;6.914;2023-05-07T04:49:53;11.20;99.90
52725;DHT22;38621;52.830;6.914;2023-05-07T04:52:19;11.20;99.90
52725;DHT22;38621;52.830;6.914;2023-05-07T04:54:44;11.20;99.90
52725;DHT22;38621;52.830;6.914;2023-05-07T04:57:10;11.30;99.90
52725;DHT22;38621;52.830;6.914;2023-05-07T04:59:36;11.20;99.90
52725;DHT22;38621;52.830;6.914;2023-05-07T05:02:02;11.30;99.90
52725;DHT22;38621;52.830;6.914;2023-05-07T05:04:29;11.20;99.90
52725;DHT22;38621;52.830;6.914;2023-05-07T05:06:55;11.30;99.90
52725;DHT22;38621;52.830;6.914;2023-05-07T05:09:21;11.20;99.90
52725;DHT22;38621;52.830;6.914;2023-05-07T05:11:47;11.30;99.90
52725;DHT22;38621;52.830;6.914;2023-05-07T05:14:13;11.40;99.90
52725;DHT22;38621;52.830;6.914;2023-05-07T05:16:38;11.40;99.90
52725;DHT22;38621;52.830;6.914;2023-05-07T05:19:04;11.40;99.90
52725;DHT22;38621;52.830;6.914;2023-05-07T05:21:31;11.40;99.90
52725;DHT22;38621;52.830;6.914;2023-05-07T05:23:58;11.40;99.90
52725;DHT22;38621;52.830;6.914;2023-05-07T05:26:23;11.50;99.90
52725;DHT22;38621;52.830;6.914;2023-05-07T05:28:49;11.50;99.90
52725;DHT22;38621;52.830;6.914;2023-05-07T05:31:16;11.60;99.90
52725;DHT22;38621;52.830;6.914;2023-05-07T05:33:42;11.70;99.90
52725;DHT22;38621;52.830;6.914;2023-05-07T05:36:09;11.70;99.90
52725;DHT22;38621;52.830;6.914;2023-05-07T05:38:36;11.80;99.90
52725;DHT22;38621;52.830;6.914;2023-05-07T05:41:02;11.80;99.90
52725;DHT22;38621;52.830;6.914;2023-05-07T05:43:27;11.80;99.90
52725;DHT22;38621;52.830;6.914;2023-05-07T05:45:54;11.80;99.90
52725;DHT22;38621;52.830;6.914;2023-05-07T05:48:20;11.90;99.90
52725;DHT22;38621;52.830;6.914;2023-05-07T05:50:46;11.90;99.90
52725;DHT22;38621;52.830;6.914;2023-05-07T05:53:12;11.90;99.90
52725;DHT22;38621;52.830;6.914;2023-05-07T05:55:37;11.90;99.90
52725;DHT22;38621;52.830;6.914;2023-05-07T05:58:03;12.00;99.90
52725;DHT22;38621;52.830;6.914;2023-05-07T06:00:29;12.10;99.90
52725;DHT22;38621;52.830;6.914;2023-05-07T06:02:55;12.10;99.90
52725;DHT22;38621;52.830;6.914;2023-05-07T06:05:21;12.20;99.90
52725;DHT22;38621;52.830;6.914;2023-05-07T06:07:46;12.20;99.90
52725;DHT22;38621;52.830;6.914;2023-05-07T06:10:12;12.20;99.90
52725;DHT22;38621;52.830;6.914;2023-05-07T06:12:38;12.30;99.90
52725;DHT22;38621;52.830;6.914;2023-05-07T06:15:04;12.30;99.90
52725;DHT22;38621;52.830;6.914;2023-05-07T06:17:30;12.30;99.90
52725;DHT22;38621;52.830;6.914;2023-05-07T06:19:56;12.30;99.90
52725;DHT22;38621;52.830;6.914;2023-05-07T06:22:21;12.30;99.90
52725;DHT22;38621;52.830;6.914;2023-05-07T06:24:47;12.30;99.90
52725;DHT22;38621;52.830;6.914;2023-05-07T06:27:13;12.40;99.90
52725;DHT22;38621;52.830;6.914;2023-05-07T06:29:39;12.40;99.90
52725;DHT22;38621;52.830;6.914;2023-05-07T06:32:09;12.40;99.90
52725;DHT22;38621;52.830;6.914;2023-05-07T06:34:35;12.40;99.90
52725;DHT22;38621;52.830;6.914;2023-05-07T06:37:02;12.40;99.90
52725;DHT22;38621;52.830;6.914;2023-05-07T06:39:27;12.40;99.90
52725;DHT22;38621;52.830;6.914;2023-05-07T06:41:53;12.40;99.90
52725;DHT22;38621;52.830;6.914;2023-05-07T06:44:19;12.40;99.90
52725;DHT22;38621;52.830;6.914;2023-05-07T06:46:44;12.40;99.90
52725;DHT22;38621;52.830;6.914;2023-05-07T06:49:12;12.40;99.90
52725;DHT22;38621;52.830;6.914;2023-05-07T06:51:38;12.40;99.90
52725;DHT22;38621;52.830;6.914;2023-05-07T06:54:04;12.40;99.90
52725;DHT22;38621;52.830;6.914;2023-05-07T06:56:31;12.50;99.90
52725;DHT22;38621;52.830;6.914;2023-05-07T06:58:56;12.50;99.90
52725;DHT22;38621;52.830;6.914;2023-05-07T07:01:22;12.60;99.90
52725;DHT22;38621;52.830;6.914;2023-05-07T07:03:48;12.60;99.90
52725;DHT22;38621;52.830;6.914;2023-05-07T07:06:14;12.60;99.90
52725;DHT22;38621;52.830;6.914;2023-05-07T07:08:39;12.60;99.90
52725;DHT22;38621;52.830;6.914;2023-05-07T07:11:06;12.70;99.90
52725;DHT22;38621;52.830;6.914;2023-05-07T07:13:31;12.70;99.90
52725;DHT22;38621;52.830;6.914;2023-05-07T07:15:58;12.80;99.90
52725;DHT22;38621;52.830;6.914;2023-05-07T07:18:25;12.80;99.90
52725;DHT22;38621;52.830;6.914;2023-05-07T07:20:50;12.90;99.90
52725;DHT22;38621;52.830;6.914;2023-05-07T07:23:16;12.90;99.90
52725;DHT22;38621;52.830;6.914;2023-05-07T07:25:42;12.90;99.90
52725;DHT22;38621;52.830;6.914;2023-05-07T07:28:07;12.90;99.90
52725;DHT22;38621;52.830;6.914;2023-05-07T07:30:33;13.00;99.90
52725;DHT22;38621;52.830;6.914;2023-05-07T07:32:59;13.00;99.90
52725;DHT22;38621;52.830;6.914;2023-05-07T07:35:32;13.10;99.90
52725;DHT22;38621;52.830;6.914;2023-05-07T07:37:58;13.20;99.90
52725;DHT22;38621;52.830;6.914;2023-05-07T07:40:24;13.30;99.90
52725;DHT22;38621;52.830;6.914;2023-05-07T07:42:51;13.40;99.90
52725;DHT22;38621;52.830;6.914;2023-05-07T07:45:16;13.40;99.90
52725;DHT22;38621;52.830;6.914;2023-05-07T07:47:42;13.50;99.90
52725;DHT22;38621;52.830;6.914;2023-05-07T07:50:08;13.50;99.90
52725;DHT22;38621;52.830;6.914;2023-05-07T07:52:34;13.60;99.90
52725;DHT22;38621;52.830;6.914;2023-05-07T07:55:00;13.60;99.90
52725;DHT22;38621;52.830;6.914;2023-05-07T07:57:27;13.60;99.90
52725;DHT22;38621;52.830;6.914;2023-05-07T07:59:52;13.60;99.90
52725;DHT22;38621;52.830;6.914;2023-05-07T08:02:18;13.50;99.90
52725;DHT22;38621;52.830;6.914;2023-05-07T08:04:44;13.40;99.90
52725;DHT22;38621;52.830;6.914;2023-05-07T08:07:10;13.40;99.90
52725;DHT22;38621;52.830;6.914;2023-05-07T08:09:37;13.40;99.90
52725;DHT22;38621;52.830;6.914;2023-05-07T08:12:03;13.40;99.90
52725;DHT22;38621;52.830;6.914;2023-05-07T08:14:29;13.40;99.90
52725;DHT22;38621;52.830;6.914;2023-05-07T08:16:55;13.60;99.90
52725;DHT22;38621;52.830;6.914;2023-05-07T08:19:21;13.60;99.90
52725;DHT22;38621;52.830;6.914;2023-05-07T08:21:47;13.70;99.90
52725;DHT22;38621;52.830;6.914;2023-05-07T08:24:16;13.70;99.90
52725;DHT22;38621;52.830;6.914;2023-05-07T08:26:43;13.70;99.90
52725;DHT22;38621;52.830;6.914;2023-05-07T08:29:09;13.70;99.90
52725;DHT22;38621;52.830;6.914;2023-05-07T08:31:35;13.70;99.90
52725;DHT22;38621;52.830;6.914;2023-05-07T08:34:01;13.80;99.90
52725;DHT22;38621;52.830;6.914;2023-05-07T08:36:26;13.90;99.90
52725;DHT22;38621;52.830;6.914;2023-05-07T08:38:53;14.00;99.90
52725;DHT22;38621;52.830;6.914;2023-05-07T08:41:19;14.00;99.90
52725;DHT22;38621;52.830;6.914;2023-05-07T08:43:48;14.20;99.90
52725;DHT22;38621;52.830;6.914;2023-05-07T08:46:21;14.20;99.90
52725;DHT22;38621;52.830;6.914;2023-05-07T08:48:51;14.30;99.90
52725;DHT22;38621;52.830;6.914;2023-05-07T08:51:21;14.40;99.90
52725;DHT22;38621;52.830;6.914;2023-05-07T08:53:47;14.60;99.90
52725;DHT22;38621;52.830;6.914;2023-05-07T08:56:14;14.90;99.90
52725;DHT22;38621;52.830;6.914;2023-05-07T08:58:44;15.00;99.90
52725;DHT22;38621;52.830;6.914;2023-05-07T09:01:13;15.30;99.90
52725;DHT22;38621;52.830;6.914;2023-05-07T09:03:40;15.50;99.90
52725;DHT22;38621;52.830;6.914;2023-05-07T09:06:06;15.70;99.90
52725;DHT22;38621;52.830;6.914;2023-05-07T09:08:35;15.80;99.90
52725;DHT22;38621;52.830;6.914;2023-05-07T09:11:01;15.90;99.90
52725;DHT22;38621;52.830;6.914;2023-05-07T09:13:28;16.00;99.90
52725;DHT22;38621;52.830;6.914;2023-05-07T09:15:54;16.20;99.90
52725;DHT22;38621;52.830;6.914;2023-05-07T09:18:19;16.40;99.90
52725;DHT22;38621;52.830;6.914;2023-05-07T09:20:45;16.70;99.90
52725;DHT22;38621;52.830;6.914;2023-05-07T09:23:11;16.80;99.90
52725;DHT22;38621;52.830;6.914;2023-05-07T09:25:37;16.80;99.90
52725;DHT22;38621;52.830;6.914;2023-05-07T09:28:04;16.90;99.90
52725;DHT22;38621;52.830;6.914;2023-05-07T09:30:33;17.00;99.90
52725;DHT22;38621;52.830;6.914;2023-05-07T09:33:00;17.00;99.90
52725;DHT22;38621;52.830;6.914;2023-05-07T09:35:27;17.10;99.90
52725;DHT22;38621;52.830;6.914;2023-05-07T09:37:54;17.20;99.90
52725;DHT22;38621;52.830;6.914;2023-05-07T09:40:30;17.10;99.90
52725;DHT22;38621;52.830;6.914;2023-05-07T09:42:56;16.90;99.90
52725;DHT22;38621;52.830;6.914;2023-05-07T09:45:33;16.80;99.90
52725;DHT22;38621;52.830;6.914;2023-05-07T09:48:00;16.80;99.90
52725;DHT22;38621;52.830;6.914;2023-05-07T09:50:29;16.90;99.90
52725;DHT22;38621;52.830;6.914;2023-05-07T09:52:56;16.90;99.90
52725;DHT22;38621;52.830;6.914;2023-05-07T09:55:23;17.00;99.90
52725;DHT22;38621;52.830;6.914;2023-05-07T09:57:53;17.10;99.90
52725;DHT22;38621;52.830;6.914;2023-05-07T10:00:20;17.10;99.90
52725;DHT22;38621;52.830;6.914;2023-05-07T10:02:48;17.30;99.90
52725;DHT22;38621;52.830;6.914;2023-05-07T10:05:15;17.50;99.90
52725;DHT22;38621;52.830;6.914;2023-05-07T10:07:42;17.60;99.90
52725;DHT22;38621;52.830;6.914;2023-05-07T10:10:09;17.80;99.90
52725;DHT22;38621;52.830;6.914;2023-05-07T10:12:35;18.10;99.90
52725;DHT22;38621;52.830;6.914;2023-05-07T10:15:09;18.30;99.90
52725;DHT22;38621;52.830;6.914;2023-05-07T10:17:40;18.60;99.90
52725;DHT22;38621;52.830;6.914;2023-05-07T10:20:07;19.00;99.90
52725;DHT22;38621;52.830;6.914;2023-05-07T10:22:38;19.10;99.90
52725;DHT22;38621;52.830;6.914;2023-05-07T10:25:08;19.10;99.90
52725;DHT22;38621;52.830;6.914;2023-05-07T10:27:39;18.80;99.90
52725;DHT22;38621;52.830;6.914;2023-05-07T10:33:27;18.70;99.90
52725;DHT22;38621;52.830;6.914;2023-05-07T10:35:58;18.80;99.90
52725;DHT22;38621;52.830;6.914;2023-05-07T10:38:26;19.10;99.90
52725;DHT22;38621;52.830;6.914;2023-05-07T10:40:52;19.30;99.90
52725;DHT22;38621;52.830;6.914;2023-05-07T10:43:18;19.70;99.90
52725;DHT22;38621;52.830;6.914;2023-05-07T10:45:44;19.80;99.90
52725;DHT22;38621;52.830;6.914;2023-05-07T10:48:29;20.00;99.90
52725;DHT22;38621;52.830;6.914;2023-05-07T10:51:18;20.20;99.90
52725;DHT22;38621;52.830;6.914;2023-05-07T10:53:44;20.40;99.90
52725;DHT22;38621;52.830;6.914;2023-05-07T10:58:44;20.60;99.90
52725;DHT22;38621;52.830;6.914;2023-05-07T11:01:10;20.70;99.90
52725;DHT22;38621;52.830;6.914;2023-05-07T11:04:13;20.90;99.90
52725;DHT22;38621;52.830;6.914;2023-05-07T11:06:40;21.10;99.90
52725;DHT22;38621;52.830;6.914;2023-05-07T11:09:06;21.30;99.90
52725;DHT22;38621;52.830;6.914;2023-05-07T11:11:47;21.40;99.90
52725;DHT22;38621;52.830;6.914;2023-05-07T11:14:14;21.50;99.90
52725;DHT22;38621;52.830;6.914;2023-05-07T11:17:03;21.60;99.90
52725;DHT22;38621;52.830;6.914;2023-05-07T11:25:05;21.60;99.90
52725;DHT22;38621;52.830;6.914;2023-05-07T11:27:32;21.70;99.90
52725;DHT22;38621;52.830;6.914;2023-05-07T11:29:58;21.80;99.90
52725;DHT22;38621;52.830;6.914;2023-05-07T11:32:31;21.80;99.90
52725;DHT22;38621;52.830;6.914;2023-05-07T11:34:59;21.70;99.90
52725;DHT22;38621;52.830;6.914;2023-05-07T11:37:26;21.60;99.90
52725;DHT22;38621;52.830;6.914;2023-05-07T11:40:07;21.60;99.90
52725;DHT22;38621;52.830;6.914;2023-05-07T11:42:38;21.80;99.90
52725;DHT22;38621;52.830;6.914;2023-05-07T11:45:05;21.80;99.90
52725;DHT22;38621;52.830;6.914;2023-05-07T11:47:32;21.80;99.90
52725;DHT22;38621;52.830;6.914;2023-05-07T11:50:04;21.80;99.90
52725;DHT22;38621;52.830;6.914;2023-05-07T11:52:30;21.70;99.90
52725;DHT22;38621;52.830;6.914;2023-05-07T11:54:57;21.80;99.90
52725;DHT22;38621;52.830;6.914;2023-05-07T11:57:24;21.90;99.90
52725;DHT22;38621;52.830;6.914;2023-05-07T11:59:57;22.00;99.90
52725;DHT22;38621;52.830;6.914;2023-05-07T12:02:23;22.00;99.90
52725;DHT22;38621;52.830;6.914;2023-05-07T12:04:53;22.20;99.90
52725;DHT22;38621;52.830;6.914;2023-05-07T12:07:19;22.30;99.90
52725;DHT22;38621;52.830;6.914;2023-05-07T12:09:45;22.20;99.90
52725;DHT22;38621;52.830;6.914;2023-05-07T12:12:13;22.20;99.90
52725;DHT22;38621;52.830;6.914;2023-05-07T12:14:41;22.10;99.90
52725;DHT22;38621;52.830;6.914;2023-05-07T12:17:08;22.10;99.90
52725;DHT22;38621;52.830;6.914;2023-05-07T12:19:35;22.00;99.90
52725;DHT22;38621;52.830;6.914;2023-05-07T12:22:03;22.00;99.90
52725;DHT22;38621;52.830;6.914;2023-05-07T12:24:29;22.00;99.90
52725;DHT22;38621;52.830;6.914;2023-05-07T12:26:54;22.20;99.90
52725;DHT22;38621;52.830;6.914;2023-05-07T12:29:23;22.40;99.90
52725;DHT22;38621;52.830;6.914;2023-05-07T12:31:50;22.30;99.90
52725;DHT22;38621;52.830;6.914;2023-05-07T12:34:16;22.30;99.90
52725;DHT22;38621;52.830;6.914;2023-05-07T12:36:41;22.30;99.90
52725;DHT22;38621;52.830;6.914;2023-05-07T12:39:08;22.40;99.90
52725;DHT22;38621;52.830;6.914;2023-05-07T12:41:53;22.60;99.90
52725;DHT22;38621;52.830;6.914;2023-05-07T12:44:22;22.80;99.90
52725;DHT22;38621;52.830;6.914;2023-05-07T12:46:48;23.10;99.90
52725;DHT22;38621;52.830;6.914;2023-05-07T12:49:14;23.40;99.90
52725;DHT22;38621;52.830;6.914;2023-05-07T12:51:40;23.30;99.90
52725;DHT22;38621;52.830;6.914;2023-05-07T12:54:06;23.00;99.90
52725;DHT22;38621;52.830;6.914;2023-05-07T12:56:35;22.80;99.90
52725;DHT22;38621;52.830;6.914;2023-05-07T12:59:01;22.80;99.90
52725;DHT22;38621;52.830;6.914;2023-05-07T13:01:30;22.70;99.90
52725;DHT22;38621;52.830;6.914;2023-05-07T13:04:00;22.60;99.90
52725;DHT22;38621;52.830;6.914;2023-05-07T13:06:26;22.60;99.90
52725;DHT22;38621;52.830;6.914;2023-05-07T13:08:52;22.50;99.90
52725;DHT22;38621;52.830;6.914;2023-05-07T13:11:18;22.40;99.90
52725;DHT22;38621;52.830;6.914;2023-05-07T13:13:44;22.10;99.90
52725;DHT22;38621;52.830;6.914;2023-05-07T13:16:10;21.80;99.90
52725;DHT22;38621;52.830;6.914;2023-05-07T13:18:38;21.60;99.90
52725;DHT22;38621;52.830;6.914;2023-05-07T13:21:04;21.30;99.90
52725;DHT22;38621;52.830;6.914;2023-05-07T13:23:30;21.10;99.90
52725;DHT22;38621;52.830;6.914;2023-05-07T13:25:56;20.90;99.90
52725;DHT22;38621;52.830;6.914;2023-05-07T13:28:23;20.70;99.90
52725;DHT22;38621;52.830;6.914;2023-05-07T13:30:49;20.70;99.90
52725;DHT22;38621;52.830;6.914;2023-05-07T13:33:15;20.60;99.90
52725;DHT22;38621;52.830;6.914;2023-05-07T13:35:41;20.50;99.90
52725;DHT22;38621;52.830;6.914;2023-05-07T13:38:07;20.40;99.90
52725;DHT22;38621;52.830;6.914;2023-05-07T13:40:33;20.30;99.90
52725;DHT22;38621;52.830;6.914;2023-05-07T13:42:59;20.20;99.90
52725;DHT22;38621;52.830;6.914;2023-05-07T13:45:28;20.10;99.90
52725;DHT22;38621;52.830;6.914;2023-05-07T13:47:55;20.00;99.90
52725;DHT22;38621;52.830;6.914;2023-05-07T13:50:21;20.00;99.90
52725;DHT22;38621;52.830;6.914;2023-05-07T13:52:47;20.20;99.90
52725;DHT22;38621;52.830;6.914;2023-05-07T13:55:23;20.60;99.90
52725;DHT22;38621;52.830;6.914;2023-05-07T13:58:03;21.20;99.90
52725;DHT22;38621;52.830;6.914;2023-05-07T14:00:29;21.70;99.90
52725;DHT22;38621;52.830;6.914;2023-05-07T14:02:56;21.70;99.90
52725;DHT22;38621;52.830;6.914;2023-05-07T14:05:22;21.60;99.90
52725;DHT22;38621;52.830;6.914;2023-05-07T14:07:54;21.50;99.90
52725;DHT22;38621;52.830;6.914;2023-05-07T14:10:20;21.40;99.90
52725;DHT22;38621;52.830;6.914;2023-05-07T14:12:46;21.40;99.90
52725;DHT22;38621;52.830;6.914;2023-05-07T14:15:12;21.10;99.90
52725;DHT22;38621;52.830;6.914;2023-05-07T14:17:38;21.00;99.90
52725;DHT22;38621;52.830;6.914;2023-05-07T14:20:04;20.80;99.90
52725;DHT22;38621;52.830;6.914;2023-05-07T14:22:32;20.50;99.90
52725;DHT22;38621;52.830;6.914;2023-05-07T14:24:58;20.30;99.90
52725;DHT22;38621;52.830;6.914;2023-05-07T14:27:23;20.10;99.90
52725;DHT22;38621;52.830;6.914;2023-05-07T14:29:49;20.00;99.90
52725;DHT22;38621;52.830;6.914;2023-05-07T14:32:17;19.90;99.90
52725;DHT22;38621;52.830;6.914;2023-05-07T14:34:44;19.80;99.90
52725;DHT22;38621;52.830;6.914;2023-05-07T14:37:09;19.60;99.90
52725;DHT22;38621;52.830;6.914;2023-05-07T14:39:35;19.40;99.90
52725;DHT22;38621;52.830;6.914;2023-05-07T14:42:01;19.30;99.90
52725;DHT22;38621;52.830;6.914;2023-05-07T14:44:27;19.20;99.90
52725;DHT22;38621;52.830;6.914;2023-05-07T14:46:53;19.10;99.90
52725;DHT22;38621;52.830;6.914;2023-05-07T14:49:19;19.00;99.90
52725;DHT22;38621;52.830;6.914;2023-05-07T14:51:46;18.90;99.90
52725;DHT22;38621;52.830;6.914;2023-05-07T14:54:13;18.90;99.90
52725;DHT22;38621;52.830;6.914;2023-05-07T14:56:39;18.80;99.90
52725;DHT22;38621;52.830;6.914;2023-05-07T14:59:06;18.70;99.90
52725;DHT22;38621;52.830;6.914;2023-05-07T15:01:32;18.60;99.90
52725;DHT22;38621;52.830;6.914;2023-05-07T15:03:59;18.50;99.90
52725;DHT22;38621;52.830;6.914;2023-05-07T15:06:25;18.40;99.90
52725;DHT22;38621;52.830;6.914;2023-05-07T15:08:52;18.40;99.90
52725;DHT22;38621;52.830;6.914;2023-05-07T15:11:17;18.40;99.90
52725;DHT22;38621;52.830;6.914;2023-05-07T15:13:43;18.30;99.90
52725;DHT22;38621;52.830;6.914;2023-05-07T15:16:09;18.30;99.90
52725;DHT22;38621;52.830;6.914;2023-05-07T15:18:35;18.30;99.90
52725;DHT22;38621;52.830;6.914;2023-05-07T15:21:01;18.30;99.90
52725;DHT22;38621;52.830;6.914;2023-05-07T15:23:27;18.30;99.90
52725;DHT22;38621;52.830;6.914;2023-05-07T15:25:52;18.30;99.90
52725;DHT22;38621;52.830;6.914;2023-05-07T15:28:19;18.40;99.90
52725;DHT22;38621;52.830;6.914;2023-05-07T15:30:44;18.40;99.90
52725;DHT22;38621;52.830;6.914;2023-05-07T15:33:10;18.50;99.90
52725;DHT22;38621;52.830;6.914;2023-05-07T15:35:36;18.50;99.90
52725;DHT22;38621;52.830;6.914;2023-05-07T15:38:02;18.70;99.90
52725;DHT22;38621;52.830;6.914;2023-05-07T15:40:29;18.80;99.90